sensor_id;sensor_type;location;lat;lon;timestamp;temperature;humidity
8965;DHT22;4517;49.020;12.066;2023-02-21T00:01:36;4.00;99.90
8965;DHT22;4517;49.020;12.066;2023-02-21T00:04:20;3.80;99.90
8965;DHT22;4517;49.020;12.066;2023-02-21T00:07:04;3.80;99.90
8965;DHT22;4517;49.020;12.066;2023-02-21T00:09:49;3.70;99.90
8965;DHT22;4517;49.020;12.066;2023-02-21T00:12:33;3.60;99.90
8965;DHT22;4517;49.020;12.066;2023-02-21T00:15:17;3.60;99.90
8965;DHT22;4517;49.020;12.066;2023-02-21T00:18:01;3.80;99.90
8965;DHT22;4517;49.020;12.066;2023-02-21T00:20:56;3.80;99.90
8965;DHT22;4517;49.020;12.066;2023-02-21T00:23:46;3.80;99.90
8965;DHT22;4517;49.020;12.066;2023-02-21T00:29:52;3.90;99.90
8965;DHT22;4517;49.020;12.066;2023-02-21T00:32:36;3.90;99.90
8965;DHT22;4517;49.020;12.066;2023-02-21T00:35:20;4.10;99.90
8965;DHT22;4517;49.020;12.066;2023-02-21T00:38:05;4.30;99.90
8965;DHT22;4517;49.020;12.066;2023-02-21T00:40:49;4.30;99.90
8965;DHT22;4517;49.020;12.066;2023-02-21T00:43:34;4.40;99.90
8965;DHT22;4517;49.020;12.066;2023-02-21T00:46:19;4.40;99.90
8965;DHT22;4517;49.020;12.066;2023-02-21T00:49:04;4.50;99.90
8965;DHT22;4517;49.020;12.066;2023-02-21T00:51:48;4.40;99.90
8965;DHT22;4517;49.020;12.066;2023-02-21T00:54:33;4.50;99.90
8965;DHT22;4517;49.020;12.066;2023-02-21T00:57:17;4.70;99.90
8965;DHT22;4517;49.020;12.066;2023-02-21T01:00:04;4.70;99.90
8965;DHT22;4517;49.020;12.066;2023-02-21T01:02:48;4.60;99.90
8965;DHT22;4517;49.020;12.066;2023-02-21T01:05:33;4.50;99.90
8965;DHT22;4517;49.020;12.066;2023-02-21T01:08:16;4.60;99.90
8965;DHT22;4517;49.020;12.066;2023-02-21T01:11:01;4.50;99.90
8965;DHT22;4517;49.020;12.066;2023-02-21T01:13:45;4.50;99.90
8965;DHT22;4517;49.020;12.066;2023-02-21T01:16:32;4.30;99.90
8965;DHT22;4517;49.020;12.066;2023-02-21T01:19:17;4.20;99.90
8965;DHT22;4517;49.020;12.066;2023-02-21T01:22:03;4.10;99.90
8965;DHT22;4517;49.020;12.066;2023-02-21T01:24:51;4.10;99.90
8965;DHT22;4517;49.020;12.066;2023-02-21T01:27:35;4.20;99.90
8965;DHT22;4517;49.020;12.066;2023-02-21T01:30:19;4.40;99.90
8965;DHT22;4517;49.020;12.066;2023-02-21T01:33:04;4.40;99.90
8965;DHT22;4517;49.020;12.066;2023-02-21T01:35:48;4.30;99.90
8965;DHT22;4517;49.020;12.066;2023-02-21T01:38:33;4.20;99.90
8965;DHT22;4517;49.020;12.066;2023-02-21T01:41:18;4.10;99.90
8965;DHT22;4517;49.020;12.066;2023-02-21T01:44:26;4.10;99.90
8965;DHT22;4517;49.020;12.066;2023-02-21T01:47:12;4.10;99.90
8965;DHT22;4517;49.020;12.066;2023-02-21T01:49:58;4.10;99.90
8965;DHT22;4517;49.020;12.066;2023-02-21T01:52:44;3.90;99.90
8965;DHT22;4517;49.020;12.066;2023-02-21T01:55:29;4.00;99.90
8965;DHT22;4517;49.020;12.066;2023-02-21T01:58:15;4.10;99.90
8965;DHT22;4517;49.020;12.066;2023-02-21T02:00:59;4.10;99.90
8965;DHT22;4517;49.020;12.066;2023-02-21T02:03:43;4.20;99.90
8965;DHT22;4517;49.020;12.066;2023-02-21T02:06:28;4.10;99.90
8965;DHT22;4517;49.020;12.066;2023-02-21T02:09:20;4.10;99.90
8965;DHT22;4517;49.020;12.066;2023-02-21T02:15:16;4.00;99.90
8965;DHT22;4517;49.020;12.066;2023-02-21T02:36:41;3.30;99.90
8965;DHT22;4517;49.020;12.066;2023-02-21T02:45:04;3.00;99.90
8965;DHT22;4517;49.020;12.066;2023-02-21T02:47:35;2.80;99.90
8965;DHT22;4517;49.020;12.066;2023-02-21T02:50:03;2.70;99.90
8965;DHT22;4517;49.020;12.066;2023-02-21T02:52:29;2.50;99.90
8965;DHT22;4517;49.020;12.066;2023-02-21T02:55:01;2.50;99.90
8965;DHT22;4517;49.020;12.066;2023-02-21T02:57:29;2.40;99.90
8965;DHT22;4517;49.020;12.066;2023-02-21T03:00:04;2.50;99.90
8965;DHT22;4517;49.020;12.066;2023-02-21T03:08:10;2.50;99.90
8965;DHT22;4517;49.020;12.066;2023-02-21T03:11:00;2.40;99.90
8965;DHT22;4517;49.020;12.066;2023-02-21T03:13:38;2.20;99.90
8965;DHT22;4517;49.020;12.066;2023-02-21T03:16:27;2.20;99.90
8965;DHT22;4517;49.020;12.066;2023-02-21T03:19:00;2.10;99.90
8965;DHT22;4517;49.020;12.066;2023-02-21T03:21:33;2.30;99.90
8965;DHT22;4517;49.020;12.066;2023-02-21T03:24:02;2.10;99.90
8965;DHT22;4517;49.020;12.066;2023-02-21T03:26:32;2.00;99.90
8965;DHT22;4517;49.020;12.066;2023-02-21T03:28:59;1.90;99.90
8965;DHT22;4517;49.020;12.066;2023-02-21T03:31:29;2.00;99.90
8965;DHT22;4517;49.020;12.066;2023-02-21T03:34:06;1.90;99.90
8965;DHT22;4517;49.020;12.066;2023-02-21T03:36:32;1.80;99.90
8965;DHT22;4517;49.020;12.066;2023-02-21T03:38:58;1.90;99.90
8965;DHT22;4517;49.020;12.066;2023-02-21T03:41:23;1.90;99.90
8965;DHT22;4517;49.020;12.066;2023-02-21T03:43:52;1.80;99.90
8965;DHT22;4517;49.020;12.066;2023-02-21T03:46:17;1.80;99.90
8965;DHT22;4517;49.020;12.066;2023-02-21T03:48:43;1.80;99.90
8965;DHT22;4517;49.020;12.066;2023-02-21T03:51:09;1.80;99.90
8965;DHT22;4517;49.020;12.066;2023-02-21T03:53:47;1.90;99.90
8965;DHT22;4517;49.020;12.066;2023-02-21T03:56:12;1.90;99.90
8965;DHT22;4517;49.020;12.066;2023-02-21T03:58:38;1.90;99.90
8965;DHT22;4517;49.020;12.066;2023-02-21T04:01:04;1.90;99.90
8965;DHT22;4517;49.020;12.066;2023-02-21T04:03:29;1.80;99.90
8965;DHT22;4517;49.020;12.066;2023-02-21T04:05:55;1.90;99.90
8965;DHT22;4517;49.020;12.066;2023-02-21T04:08:20;1.90;99.90
8965;DHT22;4517;49.020;12.066;2023-02-21T04:10:46;1.70;99.90
8965;DHT22;4517;49.020;12.066;2023-02-21T04:13:12;1.60;99.90
8965;DHT22;4517;49.020;12.066;2023-02-21T04:15:38;1.70;99.90
8965;DHT22;4517;49.020;12.066;2023-02-21T04:18:05;1.60;99.90
8965;DHT22;4517;49.020;12.066;2023-02-21T04:20:30;1.70;99.90
8965;DHT22;4517;49.020;12.066;2023-02-21T04:22:56;1.60;99.90
8965;DHT22;4517;49.020;12.066;2023-02-21T04:25:21;1.50;99.90
8965;DHT22;4517;49.020;12.066;2023-02-21T04:27:48;1.40;99.90
8965;DHT22;4517;49.020;12.066;2023-02-21T04:30:14;1.40;99.90
8965;DHT22;4517;49.020;12.066;2023-02-21T04:32:39;1.40;99.90
8965;DHT22;4517;49.020;12.066;2023-02-21T04:35:05;1.30;99.90
8965;DHT22;4517;49.020;12.066;2023-02-21T04:37:31;1.20;99.90
8965;DHT22;4517;49.020;12.066;2023-02-21T04:39:56;1.20;99.90
8965;DHT22;4517;49.020;12.066;2023-02-21T04:42:22;1.20;99.90
8965;DHT22;4517;49.020;12.066;2023-02-21T04:44:47;1.20;99.90
8965;DHT22;4517;49.020;12.066;2023-02-21T04:47:13;1.20;99.90
8965;DHT22;4517;49.020;12.066;2023-02-21T04:49:38;1.20;99.90
8965;DHT22;4517;49.020;12.066;2023-02-21T04:52:04;1.30;99.90
8965;DHT22;4517;49.020;12.066;2023-02-21T04:54:29;1.40;99.90
8965;DHT22;4517;49.020;12.066;2023-02-21T04:56:55;1.30;99.90
8965;DHT22;4517;49.020;12.066;2023-02-21T04:59:20;1.20;99.90
8965;DHT22;4517;49.020;12.066;2023-02-21T05:01:46;1.20;99.90
8965;DHT22;4517;49.020;12.066;2023-02-21T05:04:11;1.20;99.90
8965;DHT22;4517;49.020;12.066;2023-02-21T05:06:37;1.20;99.90
8965;DHT22;4517;49.020;12.066;2023-02-21T05:09:03;1.20;99.90
8965;DHT22;4517;49.020;12.066;2023-02-21T05:11:32;1.10;99.90
8965;DHT22;4517;49.020;12.066;2023-02-21T05:13:59;1.10;99.90
8965;DHT22;4517;49.020;12.066;2023-02-21T05:16:24;1.10;99.90
8965;DHT22;4517;49.020;12.066;2023-02-21T05:18:50;1.10;99.90
8965;DHT22;4517;49.020;12.066;2023-02-21T05:21:17;1.10;99.90
8965;DHT22;4517;49.020;12.066;2023-02-21T05:23:43;1.10;99.90
8965;DHT22;4517;49.020;12.066;2023-02-21T05:26:22;1.30;99.90
8965;DHT22;4517;49.020;12.066;2023-02-21T05:28:48;1.50;99.90
8965;DHT22;4517;49.020;12.066;2023-02-21T05:31:13;1.70;99.90
8965;DHT22;4517;49.020;12.066;2023-02-21T05:33:39;1.80;99.90
8965;DHT22;4517;49.020;12.066;2023-02-21T05:36:05;1.90;99.90
8965;DHT22;4517;49.020;12.066;2023-02-21T05:38:31;2.30;99.90
8965;DHT22;4517;49.020;12.066;2023-02-21T05:40:56;2.50;99.90
8965;DHT22;4517;49.020;12.066;2023-02-21T05:43:22;2.50;99.90
8965;DHT22;4517;49.020;12.066;2023-02-21T05:45:47;2.50;99.90
8965;DHT22;4517;49.020;12.066;2023-02-21T05:48:13;2.40;99.90
8965;DHT22;4517;49.020;12.066;2023-02-21T05:50:39;2.30;99.90
8965;DHT22;4517;49.020;12.066;2023-02-21T05:53:05;2.30;99.90
8965;DHT22;4517;49.020;12.066;2023-02-21T05:55:31;2.20;99.90
8965;DHT22;4517;49.020;12.066;2023-02-21T05:57:56;2.40;99.90
8965;DHT22;4517;49.020;12.066;2023-02-21T06:00:25;2.50;99.90
8965;DHT22;4517;49.020;12.066;2023-02-21T06:02:52;2.70;99.90
8965;DHT22;4517;49.020;12.066;2023-02-21T06:05:19;3.00;99.90
8965;DHT22;4517;49.020;12.066;2023-02-21T06:07:45;3.10;99.90
8965;DHT22;4517;49.020;12.066;2023-02-21T06:10:11;3.30;99.90
8965;DHT22;4517;49.020;12.066;2023-02-21T06:12:37;3.40;99.90
8965;DHT22;4517;49.020;12.066;2023-02-21T06:15:03;3.50;99.90
8965;DHT22;4517;49.020;12.066;2023-02-21T06:17:41;3.50;99.90
8965;DHT22;4517;49.020;12.066;2023-02-21T06:20:11;3.60;99.90
8965;DHT22;4517;49.020;12.066;2023-02-21T06:22:38;3.80;99.90
8965;DHT22;4517;49.020;12.066;2023-02-21T06:25:04;3.90;99.90
8965;DHT22;4517;49.020;12.066;2023-02-21T06:27:30;4.00;99.90
8965;DHT22;4517;49.020;12.066;2023-02-21T06:29:55;4.10;99.90
8965;DHT22;4517;49.020;12.066;2023-02-21T06:32:21;4.20;99.90
8965;DHT22;4517;49.020;12.066;2023-02-21T06:34:46;4.20;99.90
8965;DHT22;4517;49.020;12.066;2023-02-21T06:37:12;4.30;99.90
8965;DHT22;4517;49.020;12.066;2023-02-21T06:39:38;4.30;99.90
8965;DHT22;4517;49.020;12.066;2023-02-21T06:42:04;4.40;99.90
8965;DHT22;4517;49.020;12.066;2023-02-21T06:44:30;4.50;99.90
8965;DHT22;4517;49.020;12.066;2023-02-21T06:46:56;4.60;99.90
8965;DHT22;4517;49.020;12.066;2023-02-21T06:49:21;4.60;99.90
8965;DHT22;4517;49.020;12.066;2023-02-21T06:51:47;4.70;99.90
8965;DHT22;4517;49.020;12.066;2023-02-21T06:54:12;4.70;99.90
8965;DHT22;4517;49.020;12.066;2023-02-21T06:56:39;4.80;99.90
8965;DHT22;4517;49.020;12.066;2023-02-21T06:59:05;4.90;99.90
8965;DHT22;4517;49.020;12.066;2023-02-21T07:01:31;4.90;99.90
8965;DHT22;4517;49.020;12.066;2023-02-21T07:03:57;4.90;99.90
8965;DHT22;4517;49.020;12.066;2023-02-21T07:06:23;4.90;99.90
8965;DHT22;4517;49.020;12.066;2023-02-21T07:08:49;4.90;99.90
8965;DHT22;4517;49.020;12.066;2023-02-21T07:11:15;5.00;99.90
8965;DHT22;4517;49.020;12.066;2023-02-21T07:13:46;5.00;99.90
8965;DHT22;4517;49.020;12.066;2023-02-21T07:16:12;5.10;99.90
8965;DHT22;4517;49.020;12.066;2023-02-21T07:18:38;5.30;99.90
8965;DHT22;4517;49.020;12.066;2023-02-21T07:21:05;5.40;99.90
8965;DHT22;4517;49.020;12.066;2023-02-21T07:23:31;5.50;99.90
8965;DHT22;4517;49.020;12.066;2023-02-21T07:25:56;5.50;99.90
8965;DHT22;4517;49.020;12.066;2023-02-21T07:28:22;5.50;99.90
8965;DHT22;4517;49.020;12.066;2023-02-21T07:30:47;5.60;99.90
8965;DHT22;4517;49.020;12.066;2023-02-21T07:33:13;5.50;99.90
8965;DHT22;4517;49.020;12.066;2023-02-21T07:35:38;5.50;99.90
8965;DHT22;4517;49.020;12.066;2023-02-21T07:38:04;5.50;99.90
8965;DHT22;4517;49.020;12.066;2023-02-21T07:40:30;5.50;99.90
8965;DHT22;4517;49.020;12.066;2023-02-21T07:42:55;5.50;99.90
8965;DHT22;4517;49.020;12.066;2023-02-21T07:45:21;5.50;99.90
8965;DHT22;4517;49.020;12.066;2023-02-21T07:47:46;5.50;99.90
8965;DHT22;4517;49.020;12.066;2023-02-21T07:50:14;5.70;99.90
8965;DHT22;4517;49.020;12.066;2023-02-21T07:52:40;5.80;99.90
8965;DHT22;4517;49.020;12.066;2023-02-21T07:55:06;6.00;99.90
8965;DHT22;4517;49.020;12.066;2023-02-21T07:57:31;6.30;99.90
8965;DHT22;4517;49.020;12.066;2023-02-21T07:59:57;6.50;99.90
8965;DHT22;4517;49.020;12.066;2023-02-21T08:02:23;6.70;99.90
8965;DHT22;4517;49.020;12.066;2023-02-21T08:04:52;6.80;99.90
8965;DHT22;4517;49.020;12.066;2023-02-21T08:07:18;7.00;99.90
8965;DHT22;4517;49.020;12.066;2023-02-21T08:09:44;7.00;99.90
8965;DHT22;4517;49.020;12.066;2023-02-21T08:12:09;7.10;99.90
8965;DHT22;4517;49.020;12.066;2023-02-21T08:14:35;7.20;99.90
8965;DHT22;4517;49.020;12.066;2023-02-21T08:17:00;7.40;99.90
8965;DHT22;4517;49.020;12.066;2023-02-21T08:19:26;7.50;99.90
8965;DHT22;4517;49.020;12.066;2023-02-21T08:21:51;7.60;99.90
8965;DHT22;4517;49.020;12.066;2023-02-21T08:24:18;7.80;99.90
8965;DHT22;4517;49.020;12.066;2023-02-21T08:26:44;8.00;99.90
8965;DHT22;4517;49.020;12.066;2023-02-21T08:29:14;8.10;99.90
8965;DHT22;4517;49.020;12.066;2023-02-21T08:31:40;8.30;99.90
8965;DHT22;4517;49.020;12.066;2023-02-21T08:34:08;8.30;99.90
8965;DHT22;4517;49.020;12.066;2023-02-21T08:36:37;8.40;99.90
8965;DHT22;4517;49.020;12.066;2023-02-21T08:39:04;8.50;99.90
8965;DHT22;4517;49.020;12.066;2023-02-21T08:41:41;8.50;99.90
8965;DHT22;4517;49.020;12.066;2023-02-21T08:44:08;8.40;99.90
8965;DHT22;4517;49.020;12.066;2023-02-21T08:46:34;8.10;99.90
8965;DHT22;4517;49.020;12.066;2023-02-21T08:49:01;7.80;99.90
8965;DHT22;4517;49.020;12.066;2023-02-21T08:51:28;7.60;99.90
8965;DHT22;4517;49.020;12.066;2023-02-21T08:53:55;7.50;99.90
8965;DHT22;4517;49.020;12.066;2023-02-21T08:56:22;7.50;99.90
8965;DHT22;4517;49.020;12.066;2023-02-21T08:58:48;7.50;99.90
8965;DHT22;4517;49.020;12.066;2023-02-21T09:01:13;7.60;99.90
8965;DHT22;4517;49.020;12.066;2023-02-21T09:03:39;7.60;99.90
8965;DHT22;4517;49.020;12.066;2023-02-21T09:06:06;7.70;99.90
8965;DHT22;4517;49.020;12.066;2023-02-21T09:08:33;7.80;99.90
8965;DHT22;4517;49.020;12.066;2023-02-21T09:10:59;7.90;99.90
8965;DHT22;4517;49.020;12.066;2023-02-21T09:13:29;7.90;99.90
8965;DHT22;4517;49.020;12.066;2023-02-21T09:15:55;7.90;99.90
8965;DHT22;4517;49.020;12.066;2023-02-21T09:18:22;7.90;99.90
8965;DHT22;4517;49.020;12.066;2023-02-21T09:20:47;8.00;99.90
8965;DHT22;4517;49.020;12.066;2023-02-21T09:23:18;8.00;99.90
8965;DHT22;4517;49.020;12.066;2023-02-21T09:25:45;8.00;99.90
8965;DHT22;4517;49.020;12.066;2023-02-21T09:28:11;8.10;99.90
8965;DHT22;4517;49.020;12.066;2023-02-21T09:30:36;8.20;99.90
8965;DHT22;4517;49.020;12.066;2023-02-21T09:33:02;8.40;99.90
8965;DHT22;4517;49.020;12.066;2023-02-21T09:35:28;8.40;99.90
8965;DHT22;4517;49.020;12.066;2023-02-21T09:37:57;8.50;99.90
8965;DHT22;4517;49.020;12.066;2023-02-21T09:40:42;8.60;99.90
8965;DHT22;4517;49.020;12.066;2023-02-21T09:43:18;8.70;99.90
8965;DHT22;4517;49.020;12.066;2023-02-21T09:45:45;8.80;99.90
8965;DHT22;4517;49.020;12.066;2023-02-21T09:48:17;8.90;99.90
8965;DHT22;4517;49.020;12.066;2023-02-21T09:50:52;9.10;99.90
8965;DHT22;4517;49.020;12.066;2023-02-21T09:53:21;9.30;99.90
8965;DHT22;4517;49.020;12.066;2023-02-21T09:55:50;9.50;99.90
8965;DHT22;4517;49.020;12.066;2023-02-21T09:58:19;9.60;99.90
8965;DHT22;4517;49.020;12.066;2023-02-21T10:00:44;9.80;99.90
8965;DHT22;4517;49.020;12.066;2023-02-21T10:08:55;10.20;99.90
8965;DHT22;4517;49.020;12.066;2023-02-21T10:11:36;10.40;99.90
8965;DHT22;4517;49.020;12.066;2023-02-21T10:14:25;10.60;99.90
8965;DHT22;4517;49.020;12.066;2023-02-21T10:17:14;11.10;99.90
8965;DHT22;4517;49.020;12.066;2023-02-21T10:19:44;11.50;99.90
8965;DHT22;4517;49.020;12.066;2023-02-21T10:22:19;11.80;99.90
8965;DHT22;4517;49.020;12.066;2023-02-21T10:24:45;12.00;99.90
8965;DHT22;4517;49.020;12.066;2023-02-21T10:27:20;12.10;99.90
8965;DHT22;4517;49.020;12.066;2023-02-21T10:30:02;12.00;99.90
8965;DHT22;4517;49.020;12.066;2023-02-21T10:32:30;11.80;99.90
8965;DHT22;4517;49.020;12.066;2023-02-21T10:34:58;11.80;99.90
8965;DHT22;4517;49.020;12.066;2023-02-21T10:40:24;11.60;99.90
8965;DHT22;4517;49.020;12.066;2023-02-21T10:46:01;11.30;99.90
8965;DHT22;4517;49.020;12.066;2023-02-21T10:48:33;11.60;99.90
8965;DHT22;4517;49.020;12.066;2023-02-21T10:51:09;12.00;99.90
8965;DHT22;4517;49.020;12.066;2023-02-21T10:53:41;12.50;99.90
8965;DHT22;4517;49.020;12.066;2023-02-21T10:58:52;13.00;99.90
8965;DHT22;4517;49.020;12.066;2023-02-21T11:08:51;13.40;99.90
8965;DHT22;4517;49.020;12.066;2023-02-21T11:11:31;13.80;99.90
8965;DHT22;4517;49.020;12.066;2023-02-21T11:16:42;14.30;99.90
8965;DHT22;4517;49.020;12.066;2023-02-21T11:19:12;14.30;99.90
8965;DHT22;4517;49.020;12.066;2023-02-21T11:21:39;14.30;99.90
8965;DHT22;4517;49.020;12.066;2023-02-21T11:24:06;14.10;99.90
8965;DHT22;4517;49.020;12.066;2023-02-21T11:26:52;14.20;99.90
8965;DHT22;4517;49.020;12.066;2023-02-21T11:29:22;13.90;99.90
8965;DHT22;4517;49.020;12.066;2023-02-21T11:31:51;13.90;99.90
8965;DHT22;4517;49.020;12.066;2023-02-21T11:34:17;13.90;99.90
8965;DHT22;4517;49.020;12.066;2023-02-21T11:36:45;13.50;99.90
8965;DHT22;4517;49.020;12.066;2023-02-21T11:39:30;13.50;99.90
8965;DHT22;4517;49.020;12.066;2023-02-21T11:42:01;13.90;99.90
8965;DHT22;4517;49.020;12.066;2023-02-21T11:44:34;14.00;99.90
8965;DHT22;4517;49.020;12.066;2023-02-21T11:50:27;14.00;99.90
8965;DHT22;4517;49.020;12.066;2023-02-21T11:53:03;14.00;99.90
8965;DHT22;4517;49.020;12.066;2023-02-21T11:55:38;14.20;99.90
8965;DHT22;4517;49.020;12.066;2023-02-21T11:58:29;14.60;99.90
8965;DHT22;4517;49.020;12.066;2023-02-21T12:01:05;14.90;99.90
8965;DHT22;4517;49.020;12.066;2023-02-21T12:06:42;15.10;99.90
8965;DHT22;4517;49.020;12.066;2023-02-21T12:20:07;14.40;99.90
8965;DHT22;4517;49.020;12.066;2023-02-21T12:25:34;14.60;99.90
8965;DHT22;4517;49.020;12.066;2023-02-21T12:31:23;14.80;99.90
8965;DHT22;4517;49.020;12.066;2023-02-21T12:36:27;14.50;99.90
8965;DHT22;4517;49.020;12.066;2023-02-21T12:44:05;14.20;99.90
8965;DHT22;4517;49.020;12.066;2023-02-21T13:00:24;14.60;99.90
8965;DHT22;4517;49.020;12.066;2023-02-21T13:03:09;14.60;99.90
8965;DHT22;4517;49.020;12.066;2023-02-21T13:05:45;14.70;99.90
8965;DHT22;4517;49.020;12.066;2023-02-21T13:08:22;14.90;99.90
8965;DHT22;4517;49.020;12.066;2023-02-21T13:14:25;14.60;99.90
8965;DHT22;4517;49.020;12.066;2023-02-21T13:16:52;14.40;99.90
8965;DHT22;4517;49.020;12.066;2023-02-21T13:19:18;14.20;99.90
8965;DHT22;4517;49.020;12.066;2023-02-21T13:25:24;14.10;99.90
8965;DHT22;4517;49.020;12.066;2023-02-21T13:28:20;14.30;99.90
8965;DHT22;4517;49.020;12.066;2023-02-21T13:30:52;14.40;99.90
8965;DHT22;4517;49.020;12.066;2023-02-21T13:33:28;14.60;99.90
8965;DHT22;4517;49.020;12.066;2023-02-21T13:35:58;14.70;99.90
8965;DHT22;4517;49.020;12.066;2023-02-21T13:38:27;14.50;99.90
8965;DHT22;4517;49.020;12.066;2023-02-21T13:43:30;14.50;99.90
8965;DHT22;4517;49.020;12.066;2023-02-21T14:05:23;14.70;99.90
8965;DHT22;4517;49.020;12.066;2023-02-21T14:08:01;14.80;99.90
8965;DHT22;4517;49.020;12.066;2023-02-21T14:10:37;14.90;99.90
8965;DHT22;4517;49.020;12.066;2023-02-21T14:18:47;14.80;99.90
8965;DHT22;4517;49.020;12.066;2023-02-21T14:21:25;14.90;99.90
8965;DHT22;4517;49.020;12.066;2023-02-21T14:23:56;14.90;99.90
8965;DHT22;4517;49.020;12.066;2023-02-21T14:26:52;14.90;99.90
8965;DHT22;4517;49.020;12.066;2023-02-21T14:32:26;14.70;99.90
8965;DHT22;4517;49.020;12.066;2023-02-21T14:34:55;14.50;99.90
8965;DHT22;4517;49.020;12.066;2023-02-21T14:37:40;14.40;99.90
8965;DHT22;4517;49.020;12.066;2023-02-21T14:40:23;14.30;99.90
8965;DHT22;4517;49.020;12.066;2023-02-21T14:43:07;14.20;99.90
8965;DHT22;4517;49.020;12.066;2023-02-21T14:48:50;14.50;99.90
8965;DHT22;4517;49.020;12.066;2023-02-21T15:00:13;14.80;99.90
8965;DHT22;4517;49.020;12.066;2023-02-21T15:02:53;14.70;99.90
8965;DHT22;4517;49.020;12.066;2023-02-21T15:10:28;14.40;99.90
8965;DHT22;4517;49.020;12.066;2023-02-21T15:13:00;14.40;99.90
8965;DHT22;4517;49.020;12.066;2023-02-21T15:15:31;14.30;99.90
8965;DHT22;4517;49.020;12.066;2023-02-21T15:18:08;14.10;99.90
8965;DHT22;4517;49.020;12.066;2023-02-21T15:20:40;14.00;99.90
8965;DHT22;4517;49.020;12.066;2023-02-21T15:25:34;13.80;99.90
8965;DHT22;4517;49.020;12.066;2023-02-21T15:28:03;13.70;99.90
8965;DHT22;4517;49.020;12.066;2023-02-21T15:30:32;13.70;99.90
8965;DHT22;4517;49.020;12.066;2023-02-21T15:33:16;13.60;99.90
8965;DHT22;4517;49.020;12.066;2023-02-21T15:40:47;13.70;99.90
8965;DHT22;4517;49.020;12.066;2023-02-21T15:43:49;13.60;99.90
8965;DHT22;4517;49.020;12.066;2023-02-21T15:46:21;13.40;99.90
8965;DHT22;4517;49.020;12.066;2023-02-21T15:48:49;13.20;99.90
8965;DHT22;4517;49.020;12.066;2023-02-21T15:51:15;12.90;99.90
8965;DHT22;4517;49.020;12.066;2023-02-21T15:53:41;12.70;99.90
8965;DHT22;4517;49.020;12.066;2023-02-21T15:56:22;12.60;99.90
8965;DHT22;4517;49.020;12.066;2023-02-21T15:59:12;12.50;99.90
8965;DHT22;4517;49.020;12.066;2023-02-21T16:01:40;12.30;99.90
8965;DHT22;4517;49.020;12.066;2023-02-21T16:04:14;12.20;99.90
8965;DHT22;4517;49.020;12.066;2023-02-21T16:07:12;12.00;99.90
8965;DHT22;4517;49.020;12.066;2023-02-21T16:09:44;11.90;99.90
8965;DHT22;4517;49.020;12.066;2023-02-21T16:14:50;11.80;99.90
8965;DHT22;4517;49.020;12.066;2023-02-21T16:19:52;11.50;99.90
8965;DHT22;4517;49.020;12.066;2023-02-21T16:22:23;11.40;99.90
8965;DHT22;4517;49.020;12.066;2023-02-21T16:24:49;11.30;99.90
8965;DHT22;4517;49.020;12.066;2023-02-21T16:27:16;11.30;99.90
8965;DHT22;4517;49.020;12.066;2023-02-21T16:29:42;11.20;99.90
8965;DHT22;4517;49.020;12.066;2023-02-21T16:32:17;11.10;99.90
8965;DHT22;4517;49.020;12.066;2023-02-21T16:34:44;10.90;99.90
8965;DHT22;4517;49.020;12.066;2023-02-21T16:37:12;10.70;99.90
8965;DHT22;4517;49.020;12.066;2023-02-21T16:39:38;10.70;99.90
8965;DHT22;4517;49.020;12.066;2023-02-21T16:42:05;10.60;99.90
8965;DHT22;4517;49.020;12.066;2023-02-21T16:44:31;10.50;99.90
8965;DHT22;4517;49.020;12.066;2023-02-21T16:46:56;10.50;99.90
8965;DHT22;4517;49.020;12.066;2023-02-21T16:49:22;10.30;99.90
8965;DHT22;4517;49.020;12.066;2023-02-21T16:51:48;10.20;99.90
8965;DHT22;4517;49.020;12.066;2023-02-21T16:54:14;10.00;99.90
8965;DHT22;4517;49.020;12.066;2023-02-21T16:56:41;9.90;99.90
8965;DHT22;4517;49.020;12.066;2023-02-21T16:59:11;9.80;99.90
8965;DHT22;4517;49.020;12.066;2023-02-21T17:01:38;9.70;99.90
8965;DHT22;4517;49.020;12.066;2023-02-21T17:04:05;9.70;99.90
8965;DHT22;4517;49.020;12.066;2023-02-21T17:06:34;9.60;99.90
8965;DHT22;4517;49.020;12.066;2023-02-21T17:09:00;9.40;99.90
8965;DHT22;4517;49.020;12.066;2023-02-21T17:11:26;9.30;99.90
8965;DHT22;4517;49.020;12.066;2023-02-21T17:13:51;9.10;99.90
8965;DHT22;4517;49.020;12.066;2023-02-21T17:16:18;9.00;99.90
8965;DHT22;4517;49.020;12.066;2023-02-21T17:18:44;9.10;99.90
8965;DHT22;4517;49.020;12.066;2023-02-21T17:21:10;9.10;99.90
8965;DHT22;4517;49.020;12.066;2023-02-21T17:23:39;9.20;99.90
8965;DHT22;4517;49.020;12.066;2023-02-21T17:26:05;9.10;99.90
8965;DHT22;4517;49.020;12.066;2023-02-21T17:28:31;8.90;99.90
8965;DHT22;4517;49.020;12.066;2023-02-21T17:30:56;8.80;99.90
8965;DHT22;4517;49.020;12.066;2023-02-21T17:33:22;8.70;99.90
8965;DHT22;4517;49.020;12.066;2023-02-21T17:35:47;8.60;99.90
8965;DHT22;4517;49.020;12.066;2023-02-21T17:38:13;8.50;99.90
8965;DHT22;4517;49.020;12.066;2023-02-21T17:40:39;8.40;99.90
8965;DHT22;4517;49.020;12.066;2023-02-21T17:43:04;8.30;99.90
8965;DHT22;4517;49.020;12.066;2023-02-21T17:45:33;8.20;99.90
8965;DHT22;4517;49.020;12.066;2023-02-21T17:48:00;8.30;99.90
8965;DHT22;4517;49.020;12.066;2023-02-21T17:50:28;8.30;99.90
8965;DHT22;4517;49.020;12.066;2023-02-21T17:52:53;8.30;99.90
8965;DHT22;4517;49.020;12.066;2023-02-21T17:55:23;8.20;99.90
8965;DHT22;4517;49.020;12.066;2023-02-21T17:57:51;8.40;99.90
8965;DHT22;4517;49.020;12.066;2023-02-21T18:00:22;8.20;99.90
8965;DHT22;4517;49.020;12.066;2023-02-21T18:02:53;8.10;99.90
8965;DHT22;4517;49.020;12.066;2023-02-21T18:05:19;8.00;99.90
8965;DHT22;4517;49.020;12.066;2023-02-21T18:07:49;8.00;99.90
8965;DHT22;4517;49.020;12.066;2023-02-21T18:10:16;8.10;99.90
8965;DHT22;4517;49.020;12.066;2023-02-21T18:12:42;8.20;99.90
8965;DHT22;4517;49.020;12.066;2023-02-21T18:15:08;8.20;99.90
8965;DHT22;4517;49.020;12.066;2023-02-21T18:17:35;8.10;99.90
8965;DHT22;4517;49.020;12.066;2023-02-21T18:20:00;8.00;99.90
8965;DHT22;4517;49.020;12.066;2023-02-21T18:22:26;8.00;99.90
8965;DHT22;4517;49.020;12.066;2023-02-21T18:24:52;7.90;99.90
8965;DHT22;4517;49.020;12.066;2023-02-21T18:27:17;7.70;99.90
8965;DHT22;4517;49.020;12.066;2023-02-21T18:29:43;7.60;99.90
8965;DHT22;4517;49.020;12.066;2023-02-21T18:32:09;7.60;99.90
8965;DHT22;4517;49.020;12.066;2023-02-21T18:34:34;7.50;99.90
8965;DHT22;4517;49.020;12.066;2023-02-21T18:37:00;7.40;99.90
8965;DHT22;4517;49.020;12.066;2023-02-21T18:39:25;7.30;99.90
8965;DHT22;4517;49.020;12.066;2023-02-21T18:41:51;7.30;99.90
8965;DHT22;4517;49.020;12.066;2023-02-21T18:44:17;7.40;99.90
8965;DHT22;4517;49.020;12.066;2023-02-21T18:46:50;7.50;99.90
8965;DHT22;4517;49.020;12.066;2023-02-21T18:49:19;7.70;99.90
8965;DHT22;4517;49.020;12.066;2023-02-21T18:51:45;7.70;99.90
8965;DHT22;4517;49.020;12.066;2023-02-21T18:54:10;7.70;99.90
8965;DHT22;4517;49.020;12.066;2023-02-21T18:56:36;7.70;99.90
8965;DHT22;4517;49.020;12.066;2023-02-21T18:59:02;7.60;99.90
8965;DHT22;4517;49.020;12.066;2023-02-21T19:01:27;7.40;99.90
8965;DHT22;4517;49.020;12.066;2023-02-21T19:03:53;7.20;99.90
8965;DHT22;4517;49.020;12.066;2023-02-21T19:06:20;7.00;99.90
8965;DHT22;4517;49.020;12.066;2023-02-21T19:08:46;6.90;99.90
8965;DHT22;4517;49.020;12.066;2023-02-21T19:11:15;6.60;99.90
8965;DHT22;4517;49.020;12.066;2023-02-21T19:13:42;6.50;99.90
8965;DHT22;4517;49.020;12.066;2023-02-21T19:16:14;6.40;99.90